Lexington, KY (40517)

8:11 PM EDT on May 28, 2015 (GMT -0400)
Wilson Downing Rd | | Change Station
CLOSE
Current Station
Personal Weather Station
Location: Lexington, KY
Elevation: 935 ft
Nearby Weather Stations

Elev 935 ft 37.98 °N, 84.50 °W | Updated 5 minutes ago

Overcast
Overcast
75.2 °F
Feels Like 77 °F
N
0.0
Wind Variable Wind from North

Today
High -- | Low -- °F
--% Chance of Precip.
Yesterday
High -- | Low -- °F
Precip. -- in
6:18 AM 8:51 PM
Waxing Gibbous, 79% visible
Pressure 30.15 in
Visibility 10.0 miles
Clouds Mostly Cloudy 9500 ft
Heat Index 77 °F
Dew Point 65 °F
Humidity 71%
Rainfall -999.00 in
Snow Depth Not available.
UV 0 out of 12
Pollen 7.60 out of 12
Air Quality Not available.
Flu Activity Sporadic
METAR KLEX 282354Z 20004KT 10SM BKN095 24/18 A3017 RMK AO2 SLP209 T02390183 10261 20239 55008

More Conditions Fewer Conditions

Pressure 30.15 in
Visibility 10.0 miles
Clouds Mostly Cloudy 9500 ft
Heat Index 77 °F
Dew Point 65 °F
Humidity 71%
Rainfall -999.00 in
Snow Depth Not available.
UV 0 out of 12
Pollen 7.60 out of 12
Air Quality Not available.
Flu Activity Sporadic
METAR KLEX 282354Z 20004KT 10SM BKN095 24/18 A3017 RMK AO2 SLP209 T02390183 10261 20239 55008

More Conditions Fewer Conditions

10-Day Weather Forecast

Almanac

Astronomy

May. 28, 2015 Rise Set
Actual Time
Civil Twilight
Nautical Twilight
Astronomical Twilight
Moon
Length of Visible Light
Length of Day
Tomorrow will be .
, % of the Moon is Illuminated

Today's Extremes

State Highs State Lows

Community

WunderPhotos

Upload Photos

1,825,097 photos uploaded!

WunderBlogs® & News

Nearby

Air Quality

  Air Quality AQ Index Pollutant
Not available.

Snow Depth

Station Depth Elevation

Earthquake Activity

City Distance Mag. Time & Date
Minimum magnitude displayed is 2.5.

Coastal Water Temperatures

Place Temperature

Stations

Nearby Weather Stations

Station Location Temp. Windchill Dew Point Humidity Wind Precip. Elev Updated Type